TAF and METAR

METAR for Ziguinchor Airport

GOGG 290300Z VRB02KT 8000 -RA BKN015 OVC130 25/25 Q1012 RETS
Report created 29. sep 05:00
wind 2 knots from various directions visibility 8000 meters light rain broken clouds (~75% cover) at 1500 feet overcast at 13000 feet Temperature 25° with dewpoint at 25° (Humidity 100.00%) Pressure 1012 hPa
No TAF available for Ziguinchor Airport